sensor_id;sensor_type;location;lat;lon;timestamp;P1;durP1;ratioP1;P2;durP2;ratioP2
64826;SDS011;51265;53.972;12.286;2023-04-12T00:00:04;16.30;;;7.57;;
64826;SDS011;51265;53.972;12.286;2023-04-12T00:02:36;14.10;;;6.82;;
64826;SDS011;51265;53.972;12.286;2023-04-12T00:05:03;17.52;;;8.48;;
64826;SDS011;51265;53.972;12.286;2023-04-12T00:07:29;13.82;;;6.78;;
64826;SDS011;51265;53.972;12.286;2023-04-12T00:09:55;16.20;;;7.47;;
64826;SDS011;51265;53.972;12.286;2023-04-12T00:12:22;10.98;;;6.60;;
64826;SDS011;51265;53.972;12.286;2023-04-12T00:14:48;10.18;;;6.03;;
64826;SDS011;51265;53.972;12.286;2023-04-12T00:17:14;13.50;;;6.13;;
64826;SDS011;51265;53.972;12.286;2023-04-12T00:19:41;17.38;;;6.63;;
64826;SDS011;51265;53.972;12.286;2023-04-12T00:22:08;15.30;;;7.07;;
64826;SDS011;51265;53.972;12.286;2023-04-12T00:24:35;11.32;;;6.78;;
64826;SDS011;51265;53.972;12.286;2023-04-12T00:27:03;9.88;;;6.00;;
64826;SDS011;51265;53.972;12.286;2023-04-12T00:29:31;9.93;;;5.95;;
64826;SDS011;51265;53.972;12.286;2023-04-12T00:31:58;10.90;;;6.45;;
64826;SDS011;51265;53.972;12.286;2023-04-12T00:34:26;11.07;;;6.38;;
64826;SDS011;51265;53.972;12.286;2023-04-12T00:36:54;12.10;;;6.10;;
64826;SDS011;51265;53.972;12.286;2023-04-12T00:39:21;11.57;;;6.10;;
64826;SDS011;51265;53.972;12.286;2023-04-12T00:41:48;13.40;;;6.63;;
64826;SDS011;51265;53.972;12.286;2023-04-12T00:44:15;15.85;;;6.70;;
64826;SDS011;51265;53.972;12.286;2023-04-12T00:46:43;12.05;;;6.25;;
64826;SDS011;51265;53.972;12.286;2023-04-12T00:49:11;14.13;;;6.57;;
64826;SDS011;51265;53.972;12.286;2023-04-12T00:51:38;12.13;;;5.93;;
64826;SDS011;51265;53.972;12.286;2023-04-12T00:54:05;10.32;;;5.90;;
64826;SDS011;51265;53.972;12.286;2023-04-12T00:56:32;13.48;;;5.90;;
64826;SDS011;51265;53.972;12.286;2023-04-12T00:58:59;14.40;;;6.10;;
64826;SDS011;51265;53.972;12.286;2023-04-12T01:01:27;14.98;;;7.03;;
64826;SDS011;51265;53.972;12.286;2023-04-12T01:03:59;13.10;;;6.97;;
64826;SDS011;51265;53.972;12.286;2023-04-12T01:12:11;16.85;;;7.68;;
64826;SDS011;51265;53.972;12.286;2023-04-12T01:20:24;12.25;;;6.75;;
64826;SDS011;51265;53.972;12.286;2023-04-12T01:28:11;17.33;;;8.32;;
64826;SDS011;51265;53.972;12.286;2023-04-12T01:30:41;18.58;;;7.82;;
64826;SDS011;51265;53.972;12.286;2023-04-12T01:33:09;14.18;;;7.20;;
64826;SDS011;51265;53.972;12.286;2023-04-12T01:35:37;16.55;;;7.80;;
64826;SDS011;51265;53.972;12.286;2023-04-12T01:38:05;14.63;;;7.68;;
64826;SDS011;51265;53.972;12.286;2023-04-12T01:40:32;17.50;;;7.68;;
64826;SDS011;51265;53.972;12.286;2023-04-12T01:45:30;15.95;;;7.82;;
64826;SDS011;51265;53.972;12.286;2023-04-12T01:47:57;18.45;;;7.85;;
64826;SDS011;51265;53.972;12.286;2023-04-12T01:50:43;12.52;;;7.10;;
64826;SDS011;51265;53.972;12.286;2023-04-12T01:53:25;16.85;;;8.23;;
64826;SDS011;51265;53.972;12.286;2023-04-12T01:56:14;17.55;;;7.53;;
64826;SDS011;51265;53.972;12.286;2023-04-12T01:58:43;17.50;;;7.53;;
64826;SDS011;51265;53.972;12.286;2023-04-12T02:01:12;13.02;;;7.72;;
64826;SDS011;51265;53.972;12.286;2023-04-12T02:03:40;12.13;;;6.63;;
64826;SDS011;51265;53.972;12.286;2023-04-12T02:06:08;16.73;;;7.22;;
64826;SDS011;51265;53.972;12.286;2023-04-12T02:08:34;15.10;;;6.88;;
64826;SDS011;51265;53.972;12.286;2023-04-12T02:11:06;33.72;;;7.68;;
64826;SDS011;51265;53.972;12.286;2023-04-12T02:13:33;16.37;;;8.20;;
64826;SDS011;51265;53.972;12.286;2023-04-12T02:16:00;15.55;;;7.93;;
64826;SDS011;51265;53.972;12.286;2023-04-12T02:18:27;17.35;;;7.03;;
64826;SDS011;51265;53.972;12.286;2023-04-12T02:20:56;13.32;;;7.82;;
64826;SDS011;51265;53.972;12.286;2023-04-12T02:23:23;10.88;;;5.95;;
64826;SDS011;51265;53.972;12.286;2023-04-12T02:25:49;11.90;;;5.72;;
64826;SDS011;51265;53.972;12.286;2023-04-12T02:28:16;10.68;;;5.75;;
64826;SDS011;51265;53.972;12.286;2023-04-12T02:30:43;9.13;;;4.88;;
64826;SDS011;51265;53.972;12.286;2023-04-12T02:33:11;10.65;;;5.45;;
64826;SDS011;51265;53.972;12.286;2023-04-12T02:35:40;20.65;;;5.47;;
64826;SDS011;51265;53.972;12.286;2023-04-12T02:38:10;13.85;;;6.18;;
64826;SDS011;51265;53.972;12.286;2023-04-12T02:40:39;10.15;;;5.50;;
64826;SDS011;51265;53.972;12.286;2023-04-12T02:43:08;12.25;;;5.40;;
64826;SDS011;51265;53.972;12.286;2023-04-12T02:45:39;13.38;;;4.78;;
64826;SDS011;51265;53.972;12.286;2023-04-12T02:48:08;9.60;;;4.97;;
64826;SDS011;51265;53.972;12.286;2023-04-12T02:50:36;11.38;;;4.80;;
64826;SDS011;51265;53.972;12.286;2023-04-12T02:53:14;13.40;;;5.28;;
64826;SDS011;51265;53.972;12.286;2023-04-12T02:55:43;12.55;;;4.80;;
64826;SDS011;51265;53.972;12.286;2023-04-12T02:58:12;10.60;;;5.93;;
64826;SDS011;51265;53.972;12.286;2023-04-12T03:00:44;10.57;;;5.55;;
64826;SDS011;51265;53.972;12.286;2023-04-12T03:03:14;14.35;;;5.22;;
64826;SDS011;51265;53.972;12.286;2023-04-12T03:05:43;8.27;;;5.13;;
64826;SDS011;51265;53.972;12.286;2023-04-12T03:08:13;11.63;;;5.75;;
64826;SDS011;51265;53.972;12.286;2023-04-12T03:10:49;10.13;;;5.28;;
64826;SDS011;51265;53.972;12.286;2023-04-12T03:13:16;11.10;;;5.82;;
64826;SDS011;51265;53.972;12.286;2023-04-12T03:15:46;12.40;;;6.20;;
64826;SDS011;51265;53.972;12.286;2023-04-12T03:18:14;12.55;;;6.13;;
64826;SDS011;51265;53.972;12.286;2023-04-12T03:20:47;12.50;;;6.35;;
64826;SDS011;51265;53.972;12.286;2023-04-12T03:23:15;14.55;;;7.20;;
64826;SDS011;51265;53.972;12.286;2023-04-12T03:25:45;15.90;;;6.65;;
64826;SDS011;51265;53.972;12.286;2023-04-12T03:28:29;13.10;;;6.95;;
64826;SDS011;51265;53.972;12.286;2023-04-12T03:30:57;19.13;;;7.82;;
64826;SDS011;51265;53.972;12.286;2023-04-12T03:33:30;19.30;;;7.30;;
64826;SDS011;51265;53.972;12.286;2023-04-12T03:36:01;21.17;;;7.88;;
64826;SDS011;51265;53.972;12.286;2023-04-12T03:38:30;16.33;;;7.80;;
64826;SDS011;51265;53.972;12.286;2023-04-12T03:40:57;16.33;;;7.90;;
64826;SDS011;51265;53.972;12.286;2023-04-12T03:43:32;16.73;;;7.43;;
64826;SDS011;51265;53.972;12.286;2023-04-12T03:46:04;16.92;;;7.63;;
64826;SDS011;51265;53.972;12.286;2023-04-12T03:48:32;18.55;;;7.47;;
64826;SDS011;51265;53.972;12.286;2023-04-12T03:50:59;15.35;;;6.88;;
64826;SDS011;51265;53.972;12.286;2023-04-12T03:53:35;16.77;;;6.82;;
64826;SDS011;51265;53.972;12.286;2023-04-12T03:56:02;12.57;;;6.18;;
64826;SDS011;51265;53.972;12.286;2023-04-12T03:58:30;12.35;;;6.05;;
64826;SDS011;51265;53.972;12.286;2023-04-12T04:01:02;17.92;;;6.32;;
64826;SDS011;51265;53.972;12.286;2023-04-12T04:03:31;21.00;;;6.95;;
64826;SDS011;51265;53.972;12.286;2023-04-12T04:06:16;16.67;;;6.93;;
64826;SDS011;51265;53.972;12.286;2023-04-12T04:08:43;13.10;;;5.90;;
64826;SDS011;51265;53.972;12.286;2023-04-12T04:11:11;17.58;;;6.45;;
64826;SDS011;51265;53.972;12.286;2023-04-12T04:13:42;15.38;;;6.93;;
64826;SDS011;51265;53.972;12.286;2023-04-12T04:16:16;20.02;;;7.13;;
64826;SDS011;51265;53.972;12.286;2023-04-12T04:18:43;14.38;;;6.82;;
64826;SDS011;51265;53.972;12.286;2023-04-12T04:21:13;12.48;;;6.22;;
64826;SDS011;51265;53.972;12.286;2023-04-12T04:23:40;13.40;;;6.35;;
64826;SDS011;51265;53.972;12.286;2023-04-12T04:26:10;16.85;;;6.93;;
64826;SDS011;51265;53.972;12.286;2023-04-12T04:31:18;15.15;;;7.05;;
64826;SDS011;51265;53.972;12.286;2023-04-12T04:33:49;17.20;;;6.47;;
64826;SDS011;51265;53.972;12.286;2023-04-12T04:36:17;22.63;;;7.88;;
64826;SDS011;51265;53.972;12.286;2023-04-12T04:38:49;17.03;;;7.13;;
64826;SDS011;51265;53.972;12.286;2023-04-12T04:41:26;17.10;;;7.28;;
64826;SDS011;51265;53.972;12.286;2023-04-12T04:43:57;19.80;;;8.13;;
64826;SDS011;51265;53.972;12.286;2023-04-12T04:46:45;17.15;;;7.22;;
64826;SDS011;51265;53.972;12.286;2023-04-12T04:49:13;17.73;;;7.22;;
64826;SDS011;51265;53.972;12.286;2023-04-12T04:51:40;19.63;;;7.78;;
64826;SDS011;51265;53.972;12.286;2023-04-12T04:54:07;15.27;;;6.90;;
64826;SDS011;51265;53.972;12.286;2023-04-12T04:56:37;19.85;;;7.47;;
64826;SDS011;51265;53.972;12.286;2023-04-12T04:59:04;24.20;;;7.65;;
64826;SDS011;51265;53.972;12.286;2023-04-12T05:01:30;20.98;;;7.22;;
64826;SDS011;51265;53.972;12.286;2023-04-12T05:04:01;18.90;;;7.80;;
64826;SDS011;51265;53.972;12.286;2023-04-12T05:06:28;25.42;;;8.35;;
64826;SDS011;51265;53.972;12.286;2023-04-12T05:08:57;13.77;;;7.45;;
64826;SDS011;51265;53.972;12.286;2023-04-12T05:11:27;25.75;;;7.82;;
64826;SDS011;51265;53.972;12.286;2023-04-12T05:13:54;15.68;;;6.97;;
64826;SDS011;51265;53.972;12.286;2023-04-12T05:16:20;13.02;;;6.75;;
64826;SDS011;51265;53.972;12.286;2023-04-12T05:18:47;20.15;;;7.43;;
64826;SDS011;51265;53.972;12.286;2023-04-12T05:21:13;17.77;;;7.65;;
64826;SDS011;51265;53.972;12.286;2023-04-12T05:23:41;17.45;;;7.22;;
64826;SDS011;51265;53.972;12.286;2023-04-12T05:26:12;19.33;;;9.55;;
64826;SDS011;51265;53.972;12.286;2023-04-12T05:28:40;31.60;;;12.02;;
64826;SDS011;51265;53.972;12.286;2023-04-12T05:31:09;17.83;;;8.70;;
64826;SDS011;51265;53.972;12.286;2023-04-12T05:33:37;17.27;;;8.30;;
64826;SDS011;51265;53.972;12.286;2023-04-12T05:36:04;15.60;;;7.95;;
64826;SDS011;51265;53.972;12.286;2023-04-12T05:38:32;16.65;;;7.32;;
64826;SDS011;51265;53.972;12.286;2023-04-12T05:41:03;15.13;;;7.50;;
64826;SDS011;51265;53.972;12.286;2023-04-12T05:43:31;13.57;;;7.00;;
64826;SDS011;51265;53.972;12.286;2023-04-12T05:45:58;14.40;;;7.10;;
64826;SDS011;51265;53.972;12.286;2023-04-12T05:48:24;15.95;;;7.20;;
64826;SDS011;51265;53.972;12.286;2023-04-12T05:50:53;16.40;;;7.80;;
64826;SDS011;51265;53.972;12.286;2023-04-12T05:53:22;17.33;;;7.78;;
64826;SDS011;51265;53.972;12.286;2023-04-12T05:55:48;15.13;;;7.43;;
64826;SDS011;51265;53.972;12.286;2023-04-12T05:58:16;17.92;;;7.35;;
64826;SDS011;51265;53.972;12.286;2023-04-12T06:00:43;15.57;;;6.70;;
64826;SDS011;51265;53.972;12.286;2023-04-12T06:03:10;20.20;;;7.38;;
64826;SDS011;51265;53.972;12.286;2023-04-12T06:05:38;30.80;;;14.75;;
64826;SDS011;51265;53.972;12.286;2023-04-12T06:08:04;34.58;;;14.75;;
64826;SDS011;51265;53.972;12.286;2023-04-12T06:10:31;22.33;;;8.75;;
64826;SDS011;51265;53.972;12.286;2023-04-12T06:12:57;15.00;;;6.97;;
64826;SDS011;51265;53.972;12.286;2023-04-12T06:15:24;13.68;;;6.60;;
64826;SDS011;51265;53.972;12.286;2023-04-12T06:17:54;13.15;;;6.40;;
64826;SDS011;51265;53.972;12.286;2023-04-12T06:20:21;17.38;;;6.03;;
64826;SDS011;51265;53.972;12.286;2023-04-12T06:22:47;15.50;;;5.72;;
64826;SDS011;51265;53.972;12.286;2023-04-12T06:25:16;20.42;;;6.93;;
64826;SDS011;51265;53.972;12.286;2023-04-12T06:27:45;13.27;;;6.60;;
64826;SDS011;51265;53.972;12.286;2023-04-12T06:30:14;19.13;;;6.10;;
64826;SDS011;51265;53.972;12.286;2023-04-12T06:32:41;16.05;;;5.50;;
64826;SDS011;51265;53.972;12.286;2023-04-12T06:35:07;10.90;;;5.80;;
64826;SDS011;51265;53.972;12.286;2023-04-12T06:37:34;16.33;;;5.50;;
64826;SDS011;51265;53.972;12.286;2023-04-12T06:40:00;13.50;;;5.70;;
64826;SDS011;51265;53.972;12.286;2023-04-12T06:42:26;15.85;;;5.25;;
64826;SDS011;51265;53.972;12.286;2023-04-12T06:44:54;15.07;;;5.53;;
64826;SDS011;51265;53.972;12.286;2023-04-12T06:47:21;10.13;;;4.55;;
64826;SDS011;51265;53.972;12.286;2023-04-12T06:49:50;13.27;;;4.63;;
64826;SDS011;51265;53.972;12.286;2023-04-12T06:52:22;11.57;;;4.75;;
64826;SDS011;51265;53.972;12.286;2023-04-12T06:54:52;9.15;;;4.07;;
64826;SDS011;51265;53.972;12.286;2023-04-12T06:57:19;10.63;;;4.05;;
64826;SDS011;51265;53.972;12.286;2023-04-12T06:59:45;9.77;;;4.35;;
64826;SDS011;51265;53.972;12.286;2023-04-12T07:02:12;9.63;;;3.85;;
64826;SDS011;51265;53.972;12.286;2023-04-12T07:04:40;9.50;;;4.38;;
64826;SDS011;51265;53.972;12.286;2023-04-12T07:07:06;24.80;;;13.90;;
64826;SDS011;51265;53.972;12.286;2023-04-12T07:09:33;10.93;;;4.53;;
64826;SDS011;51265;53.972;12.286;2023-04-12T07:11:59;7.85;;;3.58;;
64826;SDS011;51265;53.972;12.286;2023-04-12T07:14:27;13.10;;;3.78;;
64826;SDS011;51265;53.972;12.286;2023-04-12T07:16:53;5.07;;;2.92;;
64826;SDS011;51265;53.972;12.286;2023-04-12T07:19:20;7.20;;;2.97;;
64826;SDS011;51265;53.972;12.286;2023-04-12T07:21:46;8.52;;;3.67;;
64826;SDS011;51265;53.972;12.286;2023-04-12T07:24:12;8.45;;;3.05;;
64826;SDS011;51265;53.972;12.286;2023-04-12T07:26:39;4.65;;;2.90;;
64826;SDS011;51265;53.972;12.286;2023-04-12T07:29:05;7.95;;;2.70;;
64826;SDS011;51265;53.972;12.286;2023-04-12T07:31:32;7.05;;;2.92;;
64826;SDS011;51265;53.972;12.286;2023-04-12T07:33:58;5.07;;;2.40;;
64826;SDS011;51265;53.972;12.286;2023-04-12T07:36:24;5.32;;;2.20;;
64826;SDS011;51265;53.972;12.286;2023-04-12T07:38:52;6.85;;;2.40;;
64826;SDS011;51265;53.972;12.286;2023-04-12T07:41:20;7.25;;;2.00;;
64826;SDS011;51265;53.972;12.286;2023-04-12T07:43:47;5.57;;;1.90;;
64826;SDS011;51265;53.972;12.286;2023-04-12T07:46:14;5.18;;;1.90;;
64826;SDS011;51265;53.972;12.286;2023-04-12T07:48:41;3.95;;;1.63;;
64826;SDS011;51265;53.972;12.286;2023-04-12T07:51:08;5.15;;;1.75;;
64826;SDS011;51265;53.972;12.286;2023-04-12T07:53:34;4.25;;;1.60;;
64826;SDS011;51265;53.972;12.286;2023-04-12T07:56:01;5.13;;;1.30;;
64826;SDS011;51265;53.972;12.286;2023-04-12T07:58:29;5.25;;;1.30;;
64826;SDS011;51265;53.972;12.286;2023-04-12T08:00:56;10.43;;;5.50;;
64826;SDS011;51265;53.972;12.286;2023-04-12T08:03:22;9.30;;;3.78;;
64826;SDS011;51265;53.972;12.286;2023-04-12T08:05:49;5.13;;;1.67;;
64826;SDS011;51265;53.972;12.286;2023-04-12T08:08:18;4.13;;;1.60;;
64826;SDS011;51265;53.972;12.286;2023-04-12T08:10:48;7.32;;;1.20;;
64826;SDS011;51265;53.972;12.286;2023-04-12T08:13:17;5.18;;;1.67;;
64826;SDS011;51265;53.972;12.286;2023-04-12T08:15:44;6.32;;;1.45;;
64826;SDS011;51265;53.972;12.286;2023-04-12T08:18:12;8.57;;;1.75;;
64826;SDS011;51265;53.972;12.286;2023-04-12T08:20:38;3.42;;;1.35;;
64826;SDS011;51265;53.972;12.286;2023-04-12T08:23:09;11.00;;;1.75;;
64826;SDS011;51265;53.972;12.286;2023-04-12T08:25:37;7.82;;;1.30;;
64826;SDS011;51265;53.972;12.286;2023-04-12T08:28:04;5.43;;;1.65;;
64826;SDS011;51265;53.972;12.286;2023-04-12T08:30:32;8.35;;;1.27;;
64826;SDS011;51265;53.972;12.286;2023-04-12T08:32:59;4.57;;;1.42;;
64826;SDS011;51265;53.972;12.286;2023-04-12T08:35:26;6.15;;;1.08;;
64826;SDS011;51265;53.972;12.286;2023-04-12T08:37:52;6.03;;;1.42;;
64826;SDS011;51265;53.972;12.286;2023-04-12T08:40:18;4.03;;;1.05;;
64826;SDS011;51265;53.972;12.286;2023-04-12T08:42:46;5.45;;;1.33;;
64826;SDS011;51265;53.972;12.286;2023-04-12T08:45:12;7.78;;;1.52;;
64826;SDS011;51265;53.972;12.286;2023-04-12T08:47:40;5.55;;;0.90;;
64826;SDS011;51265;53.972;12.286;2023-04-12T08:50:08;12.25;;;5.05;;
64826;SDS011;51265;53.972;12.286;2023-04-12T08:52:36;11.32;;;4.03;;
64826;SDS011;51265;53.972;12.286;2023-04-12T08:55:06;5.07;;;1.30;;
64826;SDS011;51265;53.972;12.286;2023-04-12T08:57:33;4.43;;;0.88;;
64826;SDS011;51265;53.972;12.286;2023-04-12T09:00:01;6.07;;;1.23;;
64826;SDS011;51265;53.972;12.286;2023-04-12T09:02:28;5.40;;;1.05;;
64826;SDS011;51265;53.972;12.286;2023-04-12T09:04:55;4.80;;;1.27;;
64826;SDS011;51265;53.972;12.286;2023-04-12T09:07:23;4.38;;;1.00;;
64826;SDS011;51265;53.972;12.286;2023-04-12T09:09:53;5.70;;;1.00;;
64826;SDS011;51265;53.972;12.286;2023-04-12T09:12:19;3.30;;;0.90;;
64826;SDS011;51265;53.972;12.286;2023-04-12T09:15:04;6.60;;;1.10;;
64826;SDS011;51265;53.972;12.286;2023-04-12T09:17:35;5.82;;;0.90;;
64826;SDS011;51265;53.972;12.286;2023-04-12T09:22:42;3.75;;;1.08;;
64826;SDS011;51265;53.972;12.286;2023-04-12T09:25:10;5.60;;;1.23;;
64826;SDS011;51265;53.972;12.286;2023-04-12T09:27:47;4.72;;;1.20;;
64826;SDS011;51265;53.972;12.286;2023-04-12T09:30:15;9.30;;;1.38;;
64826;SDS011;51265;53.972;12.286;2023-04-12T09:32:42;8.57;;;1.02;;
64826;SDS011;51265;53.972;12.286;2023-04-12T09:35:09;4.20;;;1.40;;
64826;SDS011;51265;53.972;12.286;2023-04-12T09:37:35;3.65;;;0.80;;
64826;SDS011;51265;53.972;12.286;2023-04-12T09:40:03;6.25;;;1.10;;
64826;SDS011;51265;53.972;12.286;2023-04-12T09:42:49;3.40;;;1.30;;
64826;SDS011;51265;53.972;12.286;2023-04-12T09:45:19;4.13;;;1.10;;
64826;SDS011;51265;53.972;12.286;2023-04-12T09:47:50;4.53;;;1.20;;
64826;SDS011;51265;53.972;12.286;2023-04-12T09:50:24;5.32;;;1.20;;
64826;SDS011;51265;53.972;12.286;2023-04-12T09:52:53;5.05;;;1.63;;
64826;SDS011;51265;53.972;12.286;2023-04-12T09:55:22;4.40;;;1.20;;
64826;SDS011;51265;53.972;12.286;2023-04-12T09:57:53;6.57;;;1.00;;
64826;SDS011;51265;53.972;12.286;2023-04-12T10:00:23;6.35;;;1.35;;
64826;SDS011;51265;53.972;12.286;2023-04-12T10:02:52;5.65;;;1.38;;
64826;SDS011;51265;53.972;12.286;2023-04-12T10:05:21;4.82;;;1.17;;
64826;SDS011;51265;53.972;12.286;2023-04-12T10:07:50;5.93;;;1.17;;
64826;SDS011;51265;53.972;12.286;2023-04-12T10:10:18;6.90;;;1.38;;
64826;SDS011;51265;53.972;12.286;2023-04-12T10:12:45;6.13;;;1.27;;
64826;SDS011;51265;53.972;12.286;2023-04-12T10:15:13;4.00;;;1.33;;
64826;SDS011;51265;53.972;12.286;2023-04-12T10:17:43;5.88;;;1.30;;
64826;SDS011;51265;53.972;12.286;2023-04-12T10:20:14;7.07;;;3.20;;
64826;SDS011;51265;53.972;12.286;2023-04-12T10:22:44;14.18;;;7.43;;
64826;SDS011;51265;53.972;12.286;2023-04-12T10:25:12;7.30;;;1.40;;
64826;SDS011;51265;53.972;12.286;2023-04-12T10:27:40;4.90;;;1.10;;
64826;SDS011;51265;53.972;12.286;2023-04-12T10:35:29;5.53;;;1.60;;
64826;SDS011;51265;53.972;12.286;2023-04-12T10:38:13;3.75;;;1.45;;
64826;SDS011;51265;53.972;12.286;2023-04-12T10:41:26;5.25;;;1.90;;
64826;SDS011;51265;53.972;12.286;2023-04-12T10:43:39;6.90;;;1.80;;
64826;SDS011;51265;53.972;12.286;2023-04-12T10:46:06;6.97;;;1.85;;
64826;SDS011;51265;53.972;12.286;2023-04-12T10:48:33;3.70;;;1.48;;
64826;SDS011;51265;53.972;12.286;2023-04-12T10:51:23;4.90;;;1.65;;
64826;SDS011;51265;53.972;12.286;2023-04-12T10:59:05;6.57;;;1.77;;
64826;SDS011;51265;53.972;12.286;2023-04-12T11:02:07;5.80;;;1.80;;
64826;SDS011;51265;53.972;12.286;2023-04-12T11:04:29;3.60;;;1.67;;
64826;SDS011;51265;53.972;12.286;2023-04-12T11:07:07;6.15;;;2.25;;
64826;SDS011;51265;53.972;12.286;2023-04-12T11:10:06;6.53;;;1.73;;
64826;SDS011;51265;53.972;12.286;2023-04-12T11:12:47;5.18;;;1.75;;
64826;SDS011;51265;53.972;12.286;2023-04-12T11:15:24;3.03;;;1.67;;
64826;SDS011;51265;53.972;12.286;2023-04-12T11:17:55;6.60;;;2.35;;
64826;SDS011;51265;53.972;12.286;2023-04-12T11:20:24;2.58;;;1.58;;
64826;SDS011;51265;53.972;12.286;2023-04-12T11:22:51;6.35;;;1.98;;
64826;SDS011;51265;53.972;12.286;2023-04-12T11:25:20;4.70;;;1.83;;
64826;SDS011;51265;53.972;12.286;2023-04-12T11:27:49;5.03;;;1.88;;
64826;SDS011;51265;53.972;12.286;2023-04-12T11:30:16;4.13;;;1.80;;
64826;SDS011;51265;53.972;12.286;2023-04-12T11:32:44;4.90;;;1.80;;
64826;SDS011;51265;53.972;12.286;2023-04-12T11:35:13;5.75;;;1.70;;
64826;SDS011;51265;53.972;12.286;2023-04-12T11:37:40;5.25;;;1.60;;
64826;SDS011;51265;53.972;12.286;2023-04-12T11:40:08;6.03;;;2.10;;
64826;SDS011;51265;53.972;12.286;2023-04-12T11:42:35;9.35;;;2.10;;
64826;SDS011;51265;53.972;12.286;2023-04-12T11:45:04;4.20;;;1.65;;
64826;SDS011;51265;53.972;12.286;2023-04-12T11:47:32;6.28;;;2.15;;
64826;SDS011;51265;53.972;12.286;2023-04-12T11:49:59;4.10;;;2.20;;
64826;SDS011;51265;53.972;12.286;2023-04-12T11:52:31;4.22;;;1.90;;
64826;SDS011;51265;53.972;12.286;2023-04-12T11:55:02;6.88;;;2.50;;
64826;SDS011;51265;53.972;12.286;2023-04-12T11:57:31;6.85;;;2.20;;
64826;SDS011;51265;53.972;12.286;2023-04-12T12:00:00;6.35;;;1.80;;
64826;SDS011;51265;53.972;12.286;2023-04-12T12:02:26;4.57;;;1.90;;
64826;SDS011;51265;53.972;12.286;2023-04-12T12:04:52;8.18;;;2.10;;
64826;SDS011;51265;53.972;12.286;2023-04-12T12:07:21;6.63;;;1.70;;
64826;SDS011;51265;53.972;12.286;2023-04-12T12:09:48;3.65;;;1.67;;
64826;SDS011;51265;53.972;12.286;2023-04-12T12:12:15;5.70;;;1.88;;
64826;SDS011;51265;53.972;12.286;2023-04-12T12:14:42;5.50;;;2.33;;
64826;SDS011;51265;53.972;12.286;2023-04-12T12:17:10;7.03;;;2.08;;
64826;SDS011;51265;53.972;12.286;2023-04-12T12:19:41;6.47;;;1.95;;
64826;SDS011;51265;53.972;12.286;2023-04-12T12:22:09;6.63;;;1.88;;
64826;SDS011;51265;53.972;12.286;2023-04-12T12:24:56;6.45;;;2.47;;
64826;SDS011;51265;53.972;12.286;2023-04-12T12:27:37;5.72;;;2.30;;
64826;SDS011;51265;53.972;12.286;2023-04-12T12:30:07;6.75;;;2.17;;
64826;SDS011;51265;53.972;12.286;2023-04-12T12:32:35;3.92;;;1.77;;
64826;SDS011;51265;53.972;12.286;2023-04-12T12:35:10;4.55;;;1.77;;
64826;SDS011;51265;53.972;12.286;2023-04-12T12:37:48;5.10;;;1.80;;
64826;SDS011;51265;53.972;12.286;2023-04-12T12:40:16;6.63;;;2.00;;
64826;SDS011;51265;53.972;12.286;2023-04-12T12:42:49;4.43;;;2.00;;
64826;SDS011;51265;53.972;12.286;2023-04-12T12:45:16;7.10;;;1.92;;
64826;SDS011;51265;53.972;12.286;2023-04-12T12:47:49;8.40;;;2.30;;
64826;SDS011;51265;53.972;12.286;2023-04-12T12:50:21;6.97;;;1.77;;
64826;SDS011;51265;53.972;12.286;2023-04-12T12:52:49;6.60;;;2.00;;
64826;SDS011;51265;53.972;12.286;2023-04-12T12:55:16;6.38;;;2.03;;
64826;SDS011;51265;53.972;12.286;2023-04-12T12:57:43;6.18;;;1.80;;
64826;SDS011;51265;53.972;12.286;2023-04-12T13:00:12;5.80;;;2.22;;
64826;SDS011;51265;53.972;12.286;2023-04-12T13:02:40;3.95;;;1.50;;
64826;SDS011;51265;53.972;12.286;2023-04-12T13:05:07;4.32;;;1.63;;
64826;SDS011;51265;53.972;12.286;2023-04-12T13:07:34;6.03;;;1.67;;
64826;SDS011;51265;53.972;12.286;2023-04-12T13:10:01;6.15;;;1.60;;
64826;SDS011;51265;53.972;12.286;2023-04-12T13:12:28;5.13;;;2.08;;
64826;SDS011;51265;53.972;12.286;2023-04-12T13:14:55;4.93;;;1.60;;
64826;SDS011;51265;53.972;12.286;2023-04-12T13:17:22;6.10;;;1.90;;
64826;SDS011;51265;53.972;12.286;2023-04-12T13:19:48;5.15;;;1.88;;
64826;SDS011;51265;53.972;12.286;2023-04-12T13:22:15;4.55;;;1.67;;
64826;SDS011;51265;53.972;12.286;2023-04-12T13:24:44;5.80;;;1.90;;
64826;SDS011;51265;53.972;12.286;2023-04-12T13:27:14;3.40;;;1.40;;
64826;SDS011;51265;53.972;12.286;2023-04-12T13:29:42;6.68;;;1.52;;
64826;SDS011;51265;53.972;12.286;2023-04-12T13:32:08;5.20;;;1.50;;
64826;SDS011;51265;53.972;12.286;2023-04-12T13:34:34;3.35;;;1.60;;
64826;SDS011;51265;53.972;12.286;2023-04-12T13:37:00;4.88;;;1.50;;
64826;SDS011;51265;53.972;12.286;2023-04-12T13:39:27;4.93;;;1.58;;
64826;SDS011;51265;53.972;12.286;2023-04-12T13:41:53;4.15;;;1.50;;
64826;SDS011;51265;53.972;12.286;2023-04-12T13:44:19;4.53;;;1.48;;
64826;SDS011;51265;53.972;12.286;2023-04-12T13:46:45;3.13;;;1.15;;
64826;SDS011;51265;53.972;12.286;2023-04-12T13:49:11;11.10;;;1.83;;
64826;SDS011;51265;53.972;12.286;2023-04-12T13:51:37;4.40;;;1.85;;
64826;SDS011;51265;53.972;12.286;2023-04-12T13:54:04;4.85;;;1.38;;
64826;SDS011;51265;53.972;12.286;2023-04-12T13:56:30;3.75;;;1.40;;
64826;SDS011;51265;53.972;12.286;2023-04-12T13:58:56;4.55;;;1.70;;
64826;SDS011;51265;53.972;12.286;2023-04-12T14:01:23;4.80;;;1.38;;
64826;SDS011;51265;53.972;12.286;2023-04-12T14:03:50;4.53;;;1.40;;
64826;SDS011;51265;53.972;12.286;2023-04-12T14:06:18;9.45;;;1.73;;
64826;SDS011;51265;53.972;12.286;2023-04-12T14:08:44;6.85;;;1.40;;
64826;SDS011;51265;53.972;12.286;2023-04-12T14:11:11;6.35;;;1.55;;
64826;SDS011;51265;53.972;12.286;2023-04-12T14:13:37;4.72;;;1.75;;
64826;SDS011;51265;53.972;12.286;2023-04-12T14:16:03;3.55;;;1.30;;
64826;SDS011;51265;53.972;12.286;2023-04-12T14:18:30;10.07;;;1.63;;
64826;SDS011;51265;53.972;12.286;2023-04-12T14:20:56;5.60;;;1.30;;
64826;SDS011;51265;53.972;12.286;2023-04-12T14:23:24;6.55;;;1.60;;
64826;SDS011;51265;53.972;12.286;2023-04-12T14:25:51;5.93;;;1.67;;
64826;SDS011;51265;53.972;12.286;2023-04-12T14:28:17;3.15;;;1.45;;
64826;SDS011;51265;53.972;12.286;2023-04-12T14:30:46;4.82;;;1.50;;
64826;SDS011;51265;53.972;12.286;2023-04-12T14:33:15;5.32;;;1.58;;
64826;SDS011;51265;53.972;12.286;2023-04-12T14:35:42;4.72;;;1.60;;
64826;SDS011;51265;53.972;12.286;2023-04-12T14:38:09;6.05;;;1.42;;
64826;SDS011;51265;53.972;12.286;2023-04-12T14:40:35;3.08;;;1.33;;
64826;SDS011;51265;53.972;12.286;2023-04-12T14:43:01;6.18;;;1.60;;
64826;SDS011;51265;53.972;12.286;2023-04-12T14:45:27;6.45;;;1.42;;
64826;SDS011;51265;53.972;12.286;2023-04-12T14:47:53;4.40;;;1.50;;
64826;SDS011;51265;53.972;12.286;2023-04-12T14:50:20;11.27;;;1.90;;
64826;SDS011;51265;53.972;12.286;2023-04-12T14:52:47;6.75;;;1.67;;
64826;SDS011;51265;53.972;12.286;2023-04-12T14:55:13;5.60;;;1.80;;
64826;SDS011;51265;53.972;12.286;2023-04-12T14:57:41;6.03;;;1.63;;
64826;SDS011;51265;53.972;12.286;2023-04-12T15:00:07;4.53;;;1.50;;
64826;SDS011;51265;53.972;12.286;2023-04-12T15:02:38;4.35;;;1.50;;
64826;SDS011;51265;53.972;12.286;2023-04-12T15:05:05;6.93;;;1.92;;
64826;SDS011;51265;53.972;12.286;2023-04-12T15:07:33;5.35;;;1.73;;
64826;SDS011;51265;53.972;12.286;2023-04-12T15:09:59;3.78;;;1.50;;
64826;SDS011;51265;53.972;12.286;2023-04-12T15:12:26;4.63;;;1.60;;